OEMA/MED METAR and TAF weather

Enter ICAO airport designator
Station Type Date Time Source
OEMA METAR 2020/01/18 15:00 UTC NOAA

OEMA 181500Z 27008KT 9999 SCT035 23/01 Q1016 NOSIG


Station Type Date Time Source
OEMA Decoded METAR 2020/01/18 15:00 UTC NOAA

Madinah, Saudi Arabia (OEMA) 24-33N 039-42E 636M
Jan 18, 2020 - 10:00 AM EST / 2020.01.18 1500 UTC
Wind: from the W (270 degrees) at 9 MPH (8 KT):0
Visibility: greater than 7 mile(s):0
Sky conditions: partly cloudy
Temperature: 73 F (23 C)
Dew Point: 33 F (1 C)
Relative Humidity: 23%
Pressure (altimeter): 30.00 in. Hg (1016 hPa)
ob: OEMA 181500Z 27008KT 9999 SCT035 23/01 Q1016 NOSIG
cycle: 15

Station Type Date Time Source
OEMA TAF 2020/01/18 12:06 UTC NOAA

TAF OEMA 181100Z 1812/1918 26006G16KT 8000 FEW045
TEMPO 1812/1818 5000 DU BLDU SCT045

Example: see airport list